.
WxDataArchive / Data Records for 2014-06-09
2014-06-08 June 2014 2014-06-10

Data Records for Monday, 09 June 2014

Time	Temp	Chill	HIndex	Humid	Dewpt	 Wind 	HiWind	WindDir	Rain 	Barom
-----	----	-----	------	-----	-----	------	------	-------	-----	-----
00:00	65.3	65.3	65.3	82	59.7	0	0	---	0.00	29.945 
00:05	65.0	65.0	65.0	82	59.4	0	0	---	0.00	29.945 
00:10	64.8	64.8	64.8	83	59.5	0	0	---	0.00	29.945 
00:15	64.8	64.8	64.8	83	59.5	0	0	---	0.00	29.946 
00:20	64.7	64.7	64.7	83	59.4	0	0	---	0.00	29.946 
00:25	64.7	64.7	64.7	83	59.4	0	0	---	0.00	29.946 
00:30	64.5	64.5	64.5	83	59.2	0	0	---	0.00	29.955 
00:35	64.5	64.5	64.5	83	59.2	0	0	---	0.00	29.955 
00:40	64.3	64.3	64.3	83	59.0	0	1	292	0.00	29.955 
00:45	64.2	64.2	64.2	84	59.3	0	1	292	0.00	29.958 
00:50	64.0	64.0	64.0	84	59.1	0	0	---	0.00	29.958 
00:55	63.9	63.9	63.9	84	59.0	0	0	---	0.00	29.958 
01:00	63.7	63.7	63.7	84	58.8	0	0	---	0.00	29.957 
01:05	63.5	63.5	63.5	84	58.6	0	0	---	0.00	29.957 
01:10	63.4	63.4	63.4	84	58.5	0	0	---	0.00	29.957 
01:15	63.2	63.2	63.2	84	58.3	0	0	---	0.00	29.957 
01:20	63.2	63.2	63.2	84	58.3	0	0	---	0.00	29.957 
01:25	62.9	62.9	62.9	85	58.3	0	0	---	0.00	29.957 
01:30	62.7	62.7	62.7	85	58.1	0	0	---	0.00	29.956 
01:35	62.6	62.6	62.6	85	58.0	0	0	---	0.00	29.956 
01:40	62.4	62.4	62.4	86	58.2	0	0	---	0.00	29.956 
01:45	62.4	62.4	62.4	86	58.2	0	0	---	0.00	29.952 
01:50	62.3	62.3	62.3	86	58.1	0	0	---	0.00	29.952 
01:55	62.3	62.3	62.3	86	58.1	0	0	---	0.00	29.952 
02:00	62.1	62.1	62.1	87	58.2	0	0	---	0.00	29.957 
02:05	62.1	62.1	62.1	87	58.2	0	0	---	0.00	29.957 
02:10	62.0	62.0	62.0	87	58.1	0	0	---	0.00	29.957 
02:15	61.8	61.8	61.8	87	57.9	0	0	---	0.00	29.948 
02:20	61.8	61.8	61.8	87	57.9	0	0	---	0.00	29.948 
02:25	61.6	61.6	61.6	88	58.0	0	0	---	0.00	29.948 
02:30	61.6	61.6	61.6	88	58.0	0	0	---	0.00	29.947 
02:35	61.5	61.5	61.5	88	57.9	0	0	---	0.00	29.947 
02:40	61.3	61.3	61.3	88	57.7	0	0	---	0.00	29.947 
02:45	61.3	61.3	61.3	88	57.7	0	0	---	0.00	29.954 
02:50	61.2	61.2	61.2	88	57.6	0	0	---	0.00	29.954 
02:55	61.0	61.0	61.0	88	57.4	0	0	---	0.00	29.954 
03:00	61.0	61.0	61.0	88	57.4	0	0	---	0.00	29.946 
03:05	60.9	60.9	60.9	89	57.6	0	0	---	0.00	29.946 
03:10	60.9	60.9	60.9	89	57.6	0	0	---	0.00	29.946 
03:15	60.7	60.7	60.7	89	57.4	0	0	---	0.00	29.944 
03:20	60.7	60.7	60.7	89	57.4	0	0	---	0.00	29.944 
03:25	60.7	60.7	60.7	90	57.7	0	0	---	0.00	29.944 
03:30	60.9	60.9	60.9	90	57.9	0	2	292	0.00	29.942 
03:35	61.0	61.0	61.0	90	58.0	0	1	292	0.00	29.942 
03:40	61.2	61.2	61.2	90	58.2	0	2	292	0.00	29.942 
03:45	61.2	61.2	61.2	90	58.2	0	2	292	0.00	29.942 
03:50	61.2	61.2	61.2	90	58.2	0	2	315	0.00	29.942 
03:55	61.2	61.2	61.2	90	58.2	0	2	315	0.00	29.942 
04:00	61.2	61.2	61.2	89	57.9	0	2	315	0.00	29.943 
04:05	61.0	61.0	61.0	89	57.7	0	1	315	0.00	29.943 
04:10	61.0	61.0	61.0	89	57.7	0	3	315	0.00	29.943 
04:15	60.9	60.9	60.9	89	57.6	0	1	315	0.00	29.943 
04:20	60.9	60.9	60.9	88	57.3	0	1	315	0.00	29.943 
04:25	60.9	60.9	60.9	88	57.3	0	1	315	0.00	29.943 
04:30	60.9	60.9	60.9	88	57.3	0	1	315	0.00	29.944 
04:35	60.7	60.7	60.7	88	57.1	0	3	315	0.00	29.944 
04:40	60.7	60.7	60.7	87	56.8	0	1	315	0.00	29.944 
04:45	60.7	60.7	60.7	87	56.8	0	2	315	0.00	29.948 
04:50	60.7	60.7	60.7	87	56.8	0	2	315	0.00	29.948 
04:55	60.5	60.5	60.5	87	56.6	0	3	315	0.00	29.948 
05:00	60.5	60.5	60.5	87	56.6	0	2	90	0.00	29.944 
05:05	60.4	60.4	60.4	86	56.2	0	3	90	0.00	29.944 
05:10	60.4	60.4	60.4	86	56.2	0	1	90	0.00	29.944 
05:15	60.2	60.2	60.2	86	56.0	0	5	90	0.00	29.944 
05:20	60.2	60.2	60.2	86	56.0	0	1	90	0.00	29.944 
05:25	60.1	60.1	60.1	86	55.9	0	2	90	0.00	29.944 
05:30	60.1	60.1	60.1	86	55.9	0	2	90	0.00	29.950 
05:35	60.1	60.1	60.1	86	55.9	0	2	90	0.00	29.950 
05:40	59.9	59.9	59.9	86	55.7	0	3	90	0.00	29.950 
05:45	59.9	59.9	59.9	86	55.7	0	2	90	0.00	29.947 
05:50	59.8	59.8	59.8	86	55.6	0	3	90	0.00	29.947 
05:55	59.8	59.8	59.8	86	55.6	0	2	90	0.00	29.947 
06:00	59.6	59.6	59.6	86	55.4	0	2	90	0.00	29.947 
06:05	59.5	59.5	59.5	86	55.3	0	1	90	0.00	29.947 
06:10	59.3	59.3	59.3	87	55.4	0	1	90	0.00	29.947 
06:15	59.2	59.2	59.2	87	55.3	0	0	---	0.00	29.960 
06:20	59.0	59.0	59.0	87	55.1	0	0	---	0.00	29.960 
06:25	58.9	58.9	58.9	87	55.0	0	0	---	0.00	29.960 
06:30	58.7	58.7	58.7	87	54.8	0	0	---	0.00	29.967 
06:35	58.6	58.6	58.6	87	54.7	0	0	---	0.00	29.967 
06:40	58.4	58.4	58.4	88	54.9	0	0	---	0.00	29.967 
06:45	58.3	58.3	58.3	88	54.8	0	0	---	0.00	29.968 
06:50	58.3	58.3	58.3	88	54.8	0	0	---	0.00	29.968 
06:55	58.3	58.3	58.3	89	55.1	0	0	---	0.00	29.968 
07:00	58.4	58.4	58.4	89	55.2	0	0	---	0.00	29.975 
07:05	58.6	58.6	58.6	90	55.7	0	0	---	0.00	29.975 
07:10	58.9	58.9	58.9	90	56.0	0	0	---	0.00	29.975 
07:15	59.3	59.3	59.3	89	56.1	0	2	90	0.00	29.978 
07:20	59.6	59.6	59.6	88	56.0	0	3	90	0.00	29.978 
07:25	59.9	59.9	59.9	87	56.0	0	2	90	0.00	29.978 
07:30	60.2	60.2	60.2	86	56.0	0	0	---	0.00	29.978 
07:35	60.7	60.7	60.7	86	56.5	0	2	90	0.00	29.978 
07:40	61.0	61.0	61.0	84	56.1	0	2	90	0.00	29.978 
07:45	61.3	61.3	61.3	85	56.7	0	1	90	0.00	29.977 
07:50	61.3	61.3	61.3	84	56.4	0	2	90	0.00	29.977 
07:55	61.5	61.5	61.5	83	56.3	0	2	90	0.00	29.977 
08:00	61.6	61.6	61.6	83	56.4	0	2	90	0.00	29.982 
08:05	61.8	61.8	61.8	82	56.2	0	3	90	0.00	29.982 
08:10	62.1	62.1	62.1	81	56.2	0	2	90	0.00	29.982 
08:15	62.6	62.6	62.6	82	57.0	0	2	90	0.00	29.983 
08:20	62.9	62.9	62.9	80	56.6	0	4	90	0.00	29.983 
08:25	63.1	63.1	63.1	80	56.8	0	3	90	0.00	29.983 
08:30	63.2	63.2	63.2	80	56.9	0	2	90	0.00	29.990 
08:35	63.2	63.2	63.2	79	56.6	1	3	90	0.00	29.990 
08:40	63.2	63.2	63.2	79	56.6	1	2	90	0.00	29.990 
08:45	63.1	63.1	63.1	79	56.5	1	5	90	0.00	29.991 
08:50	63.1	63.1	63.1	78	56.1	1	6	90	0.00	29.991 
08:55	63.1	63.1	63.1	77	55.8	1	4	90	0.00	29.991 
09:00	63.2	63.2	63.2	77	55.9	1	3	90	0.00	29.995 
09:05	63.4	63.4	63.4	77	56.1	1	3	90	0.00	29.995 
09:10	63.5	63.5	63.5	77	56.2	0	1	90	0.00	29.995 
09:15	63.5	63.5	63.5	76	55.8	1	5	112	0.00	29.997 
09:20	63.7	63.7	63.7	77	56.3	1	3	112	0.00	29.997 
09:25	63.9	63.9	63.9	77	56.5	0	3	112	0.00	29.997 
09:30	64.2	64.2	64.2	77	56.8	0	2	112	0.00	29.996 
09:35	64.3	64.3	64.3	76	56.6	1	3	112	0.00	29.996 
09:40	64.7	64.7	64.7	75	56.6	1	3	112	0.00	29.996 
09:45	65.0	65.0	65.0	74	56.5	1	3	112	0.00	29.994 
09:50	65.6	65.6	65.6	73	56.7	0	3	112	0.00	29.994 
09:55	66.1	66.1	66.1	73	57.2	0	2	112	0.00	29.994 
10:00	66.6	66.6	66.6	73	57.7	0	3	112	0.00	29.984 
10:05	66.8	66.8	66.8	71	57.1	1	4	112	0.00	29.984 
10:10	67.1	67.1	67.1	71	57.4	1	4	112	0.00	29.984 
10:15	67.9	67.9	67.9	72	58.5	1	5	112	0.00	29.979 
10:20	68.4	68.4	68.4	68	57.4	2	5	90	0.00	29.979 
10:25	68.4	68.4	68.4	68	57.4	1	5	90	0.00	29.979 
10:30	68.8	68.8	68.8	68	57.8	1	4	90	0.00	29.974 
10:35	68.9	68.9	68.9	70	58.7	1	4	90	0.00	29.974 
10:40	69.3	69.3	69.3	69	58.7	1	3	90	0.00	29.974 
10:45	69.6	69.6	69.6	69	59.0	0	2	90	0.00	29.967 
10:50	69.8	69.8	69.8	68	58.7	0	1	90	0.00	29.967 
10:55	69.8	69.8	69.8	66	57.9	1	3	90	0.00	29.967 
11:00	69.6	69.6	69.6	66	57.7	1	3	90	0.00	29.971 
11:05	69.4	69.4	69.4	65	57.1	2	5	90	0.00	29.971 
11:10	69.3	69.3	69.3	65	57.0	1	3	90	0.00	29.971 
11:15	69.4	69.4	69.4	68	58.4	0	2	90	0.00	29.967 
11:20	69.6	69.6	69.6	64	56.9	2	4	90	0.00	29.967 
11:25	69.9	69.9	69.9	67	58.4	1	6	90	0.00	29.967 
11:30	70.6	70.6	70.6	64	57.8	1	4	90	0.00	29.962 
11:35	70.9	70.9	70.9	63	57.7	1	4	90	0.00	29.962 
11:40	71.1	71.1	71.1	64	58.3	1	2	90	0.00	29.962 
11:45	71.3	71.3	71.3	59	56.2	2	6	90	0.00	29.966 
11:50	71.5	71.5	71.5	58	55.9	1	4	90	0.00	29.966 
11:55	72.0	72.0	72.0	59	56.9	1	3	90	0.00	29.966 
12:00	71.8	71.8	71.8	57	55.7	2	5	90	0.00	29.974 
12:05	71.6	71.6	71.6	58	56.0	1	5	90	0.00	29.974 
12:10	72.0	72.0	72.0	59	56.9	1	5	68	0.00	29.974 
12:15	72.1	72.1	72.1	61	57.9	1	4	68	0.00	29.967 
12:20	72.3	72.3	72.3	61	58.1	1	3	68	0.00	29.967 
12:25	72.7	72.7	72.7	60	58.0	0	2	68	0.00	29.967 
12:30	72.5	72.5	72.5	53	54.4	3	9	90	0.00	29.969 
12:35	72.5	72.5	72.5	56	55.9	1	4	90	0.00	29.969 
12:40	72.7	72.7	72.7	54	55.1	1	6	90	0.00	29.969 
12:45	73.0	73.0	73.0	54	55.4	1	4	90	0.00	29.958 
12:50	73.2	73.2	73.2	54	55.5	1	3	90	0.00	29.958 
12:55	73.2	73.2	73.2	54	55.5	1	6	90	0.00	29.958 
13:00	73.3	73.3	73.3	54	55.6	1	4	112	0.00	29.958 
13:05	73.3	73.3	73.3	53	55.1	2	4	112	0.00	29.958 
13:10	73.7	73.7	73.7	53	55.5	2	5	90	0.00	29.958 
13:15	73.3	73.3	73.3	52	54.6	1	4	90	0.00	29.964 
13:20	73.3	73.3	73.3	50	53.5	1	4	112	0.00	29.964 
13:25	73.5	73.5	73.5	53	55.3	1	3	90	0.00	29.964 
13:30	73.7	73.7	73.7	54	56.0	1	5	90	0.00	29.962 
13:35	74.2	74.2	74.2	54	56.5	1	3	90	0.00	29.962 
13:40	74.4	74.4	74.4	50	54.5	1	4	68	0.00	29.962 
13:45	74.0	74.0	74.0	53	55.8	2	4	68	0.00	29.971 
13:50	74.0	74.0	74.0	55	56.8	1	5	90	0.00	29.971 
13:55	74.2	74.2	74.2	53	56.0	1	4	90	0.00	29.971 
14:00	74.2	74.2	74.2	54	56.5	1	3	90	0.00	29.958 
14:05	74.4	74.4	74.4	51	55.1	2	6	90	0.00	29.958 
14:10	74.2	74.2	74.2	53	56.0	1	5	68	0.00	29.958 
14:15	74.7	74.7	74.7	52	55.9	1	6	68	0.00	29.958 
14:20	75.4	75.4	77.8	50	55.4	1	4	68	0.00	29.958 
14:25	76.0	76.0	78.1	49	55.4	1	3	90	0.00	29.958 
14:30	76.0	76.0	78.1	52	57.1	1	4	90	0.00	29.950 
14:35	75.8	75.8	77.9	44	52.3	2	6	112	0.00	29.950 
14:40	75.4	75.4	77.7	45	52.6	2	7	112	0.00	29.950 
14:45	75.4	75.4	77.7	45	52.6	2	5	68	0.00	29.943 
14:50	75.8	75.8	77.9	47	54.1	2	6	90	0.00	29.943 
14:55	75.8	75.8	78.0	49	55.3	2	5	112	0.00	29.943 
15:00	76.0	76.0	78.0	47	54.3	2	7	90	0.00	29.928 
15:05	75.6	75.6	77.8	46	53.3	2	6	90	0.00	29.928 
15:10	75.4	75.4	77.8	46	53.2	1	3	112	0.00	29.928 
15:15	75.6	75.6	77.9	51	56.2	1	4	112	0.00	29.928 
15:20	76.0	76.0	78.1	54	58.1	0	2	135	0.00	29.928 
15:25	76.5	76.5	78.3	50	56.5	1	3	135	0.00	29.928 
15:30	76.5	76.5	78.3	50	56.5	1	4	90	0.00	29.933 
15:35	76.5	76.5	78.3	47	54.7	1	3	90	0.00	29.933 
15:40	76.7	76.7	78.4	49	56.1	1	4	90	0.00	29.933 
15:45	76.5	76.5	78.3	50	56.5	1	4	112	0.00	29.932 
15:50	76.3	76.3	78.2	49	55.7	1	5	112	0.00	29.932 
15:55	76.5	76.5	78.3	48	55.3	1	4	135	0.00	29.932 
16:00	76.8	76.8	78.3	43	52.6	0	2	112	0.00	29.931 
16:05	76.8	76.8	78.3	43	52.6	0	1	112	0.00	29.931 
16:10	76.7	76.7	78.2	43	52.5	1	3	112	0.00	29.931 
16:15	76.0	76.0	78.0	44	52.5	1	3	112	0.00	29.927 
16:20	75.8	75.8	77.8	43	51.7	0	2	112	0.00	29.927 
16:25	75.6	75.6	77.9	47	53.9	1	3	112	0.00	29.927 
16:30	75.6	75.6	77.9	48	54.5	1	3	112	0.00	29.918 
16:35	75.8	75.8	77.9	44	52.3	0	3	45	0.00	29.918 
16:40	76.0	76.0	78.0	46	53.7	1	4	68	0.00	29.918 
16:45	75.6	75.6	77.8	46	53.3	1	4	112	0.00	29.915 
16:50	75.8	75.8	77.9	46	53.5	1	4	112	0.00	29.915 
16:55	76.0	76.0	78.0	44	52.5	1	4	90	0.00	29.915 
17:00	76.7	76.7	78.4	48	55.5	0	1	90	0.00	29.916 
17:05	77.4	77.4	78.7	46	55.0	0	2	90	0.00	29.916 
17:10	77.7	77.7	78.8	45	54.6	0	3	90	0.00	29.916 
17:15	77.9	77.9	79.0	46	55.4	0	2	90	0.00	29.912 
17:20	77.6	77.6	78.8	47	55.8	0	2	90	0.00	29.912 
17:25	76.7	76.7	78.4	48	55.5	2	5	90	0.00	29.912 
17:30	76.1	76.1	78.1	50	56.1	0	3	90	0.00	29.916 
17:35	75.8	75.8	78.0	48	54.7	1	4	90	0.00	29.916 
17:40	75.8	75.8	77.9	47	54.1	1	3	90	0.00	29.916 
17:45	75.8	75.8	78.0	50	55.8	0	1	90	0.00	29.913 
17:50	76.1	76.1	78.1	49	55.5	1	4	90	0.00	29.913 
17:55	76.3	76.3	78.2	48	55.1	1	3	90	0.00	29.913 
18:00	76.3	76.3	78.2	50	56.3	1	2	90	0.00	29.913 
18:05	76.1	76.1	78.1	48	55.0	1	3	90	0.00	29.913 
18:10	76.0	76.0	78.1	50	56.0	0	2	90	0.00	29.913 
18:15	75.8	75.8	78.0	49	55.3	1	3	90	0.00	29.913 
18:20	75.8	75.8	78.0	49	55.3	0	2	90	0.00	29.913 
18:25	75.8	75.8	78.0	50	55.8	0	2	90	0.00	29.913 
18:30	75.6	75.6	77.9	51	56.2	0	2	90	0.00	29.909 
18:35	75.4	75.4	77.8	50	55.4	1	4	90	0.00	29.909 
18:40	74.9	74.9	74.9	51	55.5	1	3	90	0.00	29.909 
18:45	74.7	74.7	74.7	50	54.8	0	2	90	0.00	29.911 
18:50	74.7	74.7	74.7	52	55.9	0	2	90	0.00	29.911 
18:55	74.7	74.7	74.7	51	55.4	0	2	90	0.00	29.911 
19:00	74.9	74.9	74.9	50	55.0	1	2	90	0.00	29.902 
19:05	74.9	74.9	74.9	51	55.5	0	2	90	0.00	29.902 
19:10	74.9	74.9	74.9	50	55.0	0	3	90	0.00	29.902 
19:15	74.7	74.7	74.7	50	54.8	0	2	90	0.00	29.896 
19:20	74.6	74.6	74.6	50	54.7	1	4	90	0.00	29.896 
19:25	74.6	74.6	74.6	52	55.8	0	3	90	0.00	29.896 
19:30	74.4	74.4	74.4	51	55.1	1	4	90	0.00	29.896 
19:35	74.4	74.4	74.4	52	55.6	0	2	90	0.00	29.896 
19:40	74.4	74.4	74.4	52	55.6	0	3	90	0.00	29.896 
19:45	74.2	74.2	74.2	52	55.4	0	3	90	0.00	29.896 
19:50	74.2	74.2	74.2	52	55.4	0	1	90	0.00	29.896 
19:55	74.2	74.2	74.2	52	55.4	0	3	90	0.00	29.896 
20:00	74.0	74.0	74.0	52	55.2	0	1	90	0.00	29.897 
20:05	74.0	74.0	74.0	52	55.2	0	1	90	0.00	29.897 
20:10	74.0	74.0	74.0	52	55.2	0	2	90	0.00	29.897 
20:15	74.0	74.0	74.0	52	55.2	0	1	90	0.00	29.902 
20:20	73.9	73.9	73.9	53	55.7	0	0	---	0.00	29.902 
20:25	73.9	73.9	73.9	53	55.7	0	0	---	0.00	29.902 
20:30	73.7	73.7	73.7	53	55.5	0	1	90	0.00	29.898 
20:35	73.5	73.5	73.5	54	55.8	0	0	---	0.00	29.898 
20:40	73.3	73.3	73.3	55	56.1	0	0	---	0.00	29.898 
20:45	73.0	73.0	73.0	55	55.9	0	0	---	0.00	29.896 
20:50	72.7	72.7	72.7	55	55.6	0	1	90	0.00	29.896 
20:55	72.5	72.5	72.5	56	55.9	0	0	---	0.00	29.896 
21:00	72.1	72.1	72.1	57	56.0	0	0	---	0.00	29.894 
21:05	71.6	71.6	71.6	57	55.5	0	0	---	0.00	29.894 
21:10	71.1	71.1	71.1	58	55.6	0	0	---	0.00	29.894 
21:15	70.8	70.8	70.8	59	55.7	0	0	---	0.00	29.892 
21:20	70.4	70.4	70.4	60	55.8	0	0	---	0.00	29.892 
21:25	69.9	69.9	69.9	61	55.8	0	0	---	0.00	29.892 
21:30	69.6	69.6	69.6	62	56.0	0	0	---	0.00	29.895 
21:35	69.3	69.3	69.3	63	56.2	0	0	---	0.00	29.895 
21:40	69.1	69.1	69.1	65	56.8	0	0	---	0.00	29.895 
21:45	68.6	68.6	68.6	65	56.4	0	0	---	0.00	29.896 
21:50	68.3	68.3	68.3	65	56.1	0	0	---	0.00	29.896 
21:55	67.9	67.9	67.9	66	56.1	0	0	---	0.00	29.896 
22:00	67.6	67.6	67.6	67	56.2	0	0	---	0.00	29.897 
22:05	67.4	67.4	67.4	68	56.5	0	0	---	0.00	29.897 
22:10	67.1	67.1	67.1	69	56.6	0	0	---	0.00	29.897 
22:15	66.9	66.9	66.9	70	56.8	0	0	---	0.00	29.896 
22:20	66.8	66.8	66.8	70	56.7	0	0	---	0.00	29.896 
22:25	66.4	66.4	66.4	71	56.7	0	0	---	0.00	29.896 
22:30	66.1	66.1	66.1	71	56.4	0	0	---	0.00	29.897 
22:35	66.0	66.0	66.0	72	56.7	0	0	---	0.00	29.897 
22:40	65.6	65.6	65.6	73	56.7	0	0	---	0.00	29.897 
22:45	65.5	65.5	65.5	74	57.0	0	0	---	0.00	29.901 
22:50	65.3	65.3	65.3	75	57.2	0	0	---	0.00	29.901 
22:55	65.0	65.0	65.0	75	56.9	0	0	---	0.00	29.901 
23:00	64.8	64.8	64.8	76	57.0	0	0	---	0.00	29.906 
23:05	64.5	64.5	64.5	77	57.1	0	0	---	0.00	29.906 
23:10	64.3	64.3	64.3	77	56.9	0	0	---	0.00	29.906 
23:15	64.0	64.0	64.0	78	57.0	0	0	---	0.00	29.899 
23:20	63.9	63.9	63.9	79	57.3	0	0	---	0.00	29.899 
23:25	63.7	63.7	63.7	80	57.4	0	0	---	0.00	29.899 
23:30	63.4	63.4	63.4	81	57.5	0	0	---	0.00	29.896 
23:35	63.2	63.2	63.2	82	57.6	0	0	---	0.00	29.896 
23:40	63.1	63.1	63.1	82	57.5	0	0	---	0.00	29.896 
23:45	63.1	63.1	63.1	83	57.8	0	0	---	0.00	29.899 
23:50	62.9	62.9	62.9	84	58.0	0	0	---	0.00	29.899 
23:55	62.7	62.7	62.7	84	57.8	0	0	---	0.00	29.899 

CoCoRaHS
IN-AL-39
A2 Web Hosting
Creative Commons License
GoDaddy
search engine by freefind advanced

loaded 2018-11-12 15:20:26 • last modified 2010-11-18 10:43:29
Privacy PolicyDisclaimer
• wx.awcolley.com is powered by PmWiki v.2002016 •
• all content (unless otherwise noted) © 2018 A W Colley